Time;durP1;ratioP1;P1;durP2;ratioP2;P2;SDS_P1;SDS_P2;PMS_P1;PMS_P2;Temp;Humidity;BMP_temperature;BMP_pressure;BME280_temperature;BME280_humidity;BME280_pressure;Samples;Min_cycle;Max_cycle;Signal;HPM_P1;HPM_P2
2023/01/01 00:02:08;;;;;;;89.00;43.95;;;;;;;13.29;100.00;100539.59;5030678;28;20026;-37
2023/01/01 00:04:33;;;;;;;94.18;39.17;;;;;;;13.31;100.00;100542.91;5030670;28;20032;-40
2023/01/01 00:06:59;;;;;;;91.70;46.42;;;;;;;13.31;100.00;100548.31;5031013;28;20025;-40
2023/01/01 00:12:09;;;;;;;97.45;39.17;;;;;;;13.26;100.00;100549.94;5030712;28;20095;-37
2023/01/01 00:14:34;;;;;;;80.55;39.10;;;;;;;13.27;100.00;100557.91;5030382;28;20030;-40
2023/01/01 00:16:59;;;;;;;80.82;35.03;;;;;;;13.28;100.00;100558.72;5030583;28;20393;-39
2023/01/01 00:19:25;;;;;;;78.00;34.53;;;;;;;13.23;100.00;100545.78;5030494;28;20047;-39
2023/01/01 00:21:50;;;;;;;72.07;30.83;;;;;;;13.23;100.00;100547.66;5031084;28;20041;-38
2023/01/01 00:24:15;;;;;;;63.10;34.13;;;;;;;13.19;100.00;100541.81;5029243;28;20116;-39
2023/01/01 00:26:41;;;;;;;59.25;27.73;;;;;;;13.25;100.00;100535.63;5034202;28;20132;-39
2023/01/01 00:29:06;;;;;;;57.72;25.92;;;;;;;13.25;100.00;100538.31;5040409;28;20108;-39
2023/01/01 00:31:31;;;;;;;58.72;24.30;;;;;;;13.24;100.00;100527.69;5033754;28;20041;-38
2023/01/01 00:33:57;;;;;;;60.60;25.90;;;;;;;13.30;100.00;100535.84;5033244;28;20068;-37
2023/01/01 00:36:25;;;;;;;48.45;21.90;;;;;;;13.35;100.00;100543.34;5037954;28;20173;-39
2023/01/01 00:38:50;;;;;;;;;;;;;;;13.30;100.00;100549.38;5040522;28;20033;-37
2023/01/01 00:41:16;;;;;;;54.10;22.98;;;;;;;13.32;100.00;100559.97;5050194;28;20007;-38
2023/01/01 00:43:42;;;;;;;71.22;26.77;;;;;;;13.30;100.00;100538.56;5036496;28;20030;-39
2023/01/01 00:46:08;;;;;;;52.58;19.40;;;;;;;13.37;100.00;100544.78;5033728;28;20504;-36
2023/01/01 00:48:33;;;;;;;48.30;17.33;;;;;;;13.44;100.00;100527.75;5045337;28;20060;-39
2023/01/01 00:50:59;;;;;;;49.00;18.27;;;;;;;13.39;100.00;100531.91;5044992;28;20033;-38
2023/01/01 00:53:24;;;;;;;42.08;13.93;;;;;;;13.42;100.00;100549.56;5042680;28;20025;-39
2023/01/01 00:55:51;;;;;;;60.40;17.80;;;;;;;13.35;100.00;100556.88;5034411;28;20039;-39
2023/01/01 00:58:17;;;;;;;45.08;14.25;;;;;;;13.32;100.00;100547.31;5035434;28;20028;-38
2023/01/01 01:00:43;;;;;;;38.90;14.75;;;;;;;13.30;100.00;100540.44;5034434;28;20030;-38
2023/01/01 01:03:10;;;;;;;43.30;17.52;;;;;;;13.26;100.00;100567.03;5041543;28;20044;-38
2023/01/01 01:05:37;;;;;;;62.40;20.02;;;;;;;13.28;100.00;100561.44;5045173;28;20740;-39
2023/01/01 01:08:02;;;;;;;78.70;28.73;;;;;;;13.29;100.00;100563.09;5037515;28;20037;-38
2023/01/01 01:10:28;;;;;;;54.63;21.50;;;;;;;13.28;100.00;100554.16;5033885;28;20036;-40
2023/01/01 01:12:53;;;;;;;33.58;13.70;;;;;;;13.28;100.00;100586.59;5033857;28;20029;-39
2023/01/01 01:15:19;;;;;;;36.13;9.50;;;;;;;13.27;100.00;100557.91;5045627;28;20025;-39
2023/01/01 01:17:44;;;;;;;34.35;8.77;;;;;;;13.26;100.00;100549.94;5065469;28;20029;-39
2023/01/01 01:20:11;;;;;;;31.27;11.93;;;;;;;13.26;100.00;100556.22;5073630;28;20063;-40
2023/01/01 01:22:37;;;;;;;27.55;8.60;;;;;;;13.30;100.00;100551.25;5070442;28;20029;-37
2023/01/01 01:25:04;;;;;;;20.25;7.70;;;;;;;13.31;100.00;100537.50;5035239;28;20041;-40
2023/01/01 01:27:30;;;;;;;31.67;9.35;;;;;;;13.32;100.00;100560.81;5038520;28;20041;-40
2023/01/01 01:29:55;;;;;;;32.70;9.23;;;;;;;13.30;100.00;100565.59;5044552;28;20031;-38
2023/01/01 01:32:20;;;;;;;34.15;8.00;;;;;;;13.28;100.00;100543.34;5049551;28;20469;-40
2023/01/01 01:34:46;;;;;;;24.20;5.10;;;;;;;13.32;100.00;100566.22;5047391;28;20025;-38
2023/01/01 01:37:11;;;;;;;21.83;5.57;;;;;;;13.31;100.00;100553.72;5040134;28;20048;-39
2023/01/01 01:39:37;;;;;;;34.45;7.13;;;;;;;13.34;100.00;100574.94;5048205;28;20025;-37
2023/01/01 01:42:02;;;;;;;20.95;7.00;;;;;;;13.33;100.00;100565.16;5036290;28;20030;-40
2023/01/01 01:44:54;;;;;;;17.75;5.35;;;;;;;13.44;100.00;100579.13;5049110;28;20044;-40
2023/01/01 01:47:27;;;;;;;18.08;5.00;;;;;;;13.41;100.00;100593.88;5033127;28;20029;-37
2023/01/01 01:50:03;;;;;;;19.27;4.70;;;;;;;13.45;100.00;100591.59;5033412;28;20472;-40
2023/01/01 01:52:30;;;;;;;24.40;5.63;;;;;;;13.45;100.00;100603.22;5031787;28;20039;-39
2023/01/01 01:54:56;;;;;;;26.17;4.97;;;;;;;13.48;100.00;100585.75;5031572;28;20037;-37
2023/01/01 01:57:22;;;;;;;25.52;4.70;;;;;;;13.46;100.00;100604.91;5031631;28;20059;-38
2023/01/01 01:59:49;;;;;;;17.45;3.85;;;;;;;13.49;100.00;100590.13;5033012;28;20061;-40
2023/01/01 02:02:19;;;;;;;22.75;4.35;;;;;;;13.49;100.00;100592.84;5032465;28;20044;-40
2023/01/01 02:04:44;;;;;;;20.15;3.80;;;;;;;13.52;100.00;100671.66;5041402;28;20091;-38
2023/01/01 02:07:12;;;;;;;14.15;3.78;;;;;;;13.53;100.00;100607.59;5052382;28;20111;-40
2023/01/01 02:09:37;;;;;;;17.95;5.32;;;;;;;13.49;100.00;100611.78;5051419;28;20523;-40
2023/01/01 02:12:02;;;;;;;17.10;3.90;;;;;;;13.53;100.00;100597.63;5052692;28;20044;-40
2023/01/01 02:14:28;;;;;;;21.02;4.35;;;;;;;13.52;100.00;100608.66;5038783;28;20021;-40
2023/01/01 02:17:02;;;;;;;16.55;3.83;;;;;;;13.51;100.00;100632.16;5041993;28;20021;-39
2023/01/01 02:19:43;;;;;;;23.60;4.35;;;;;;;13.55;100.00;100613.63;5031802;28;20044;-40
2023/01/01 02:22:16;;;;;;;13.57;3.65;;;;;;;13.55;100.00;100617.16;5044742;28;20426;-39
2023/01/01 02:24:58;;;;;;;18.50;3.90;;;;;;;13.52;100.00;100620.28;5032256;28;20021;-40
2023/01/01 02:27:24;;;;;;;14.98;3.70;;;;;;;13.49;100.00;100622.59;5031967;28;20044;-37
2023/01/01 02:30:04;;;;;;;26.38;4.35;;;;;;;13.43;100.00;100626.09;5052590;28;20032;-39
2023/01/01 02:32:37;;;;;;;16.48;4.63;;;;;;;13.37;100.00;100631.28;5037159;28;20136;-37
2023/01/01 02:37:56;;;;;;;16.77;3.25;;;;;;;13.43;100.00;100623.38;5032559;28;20037;-37
2023/01/01 02:40:22;;;;;;;21.60;4.20;;;;;;;13.41;100.00;100607.38;5033347;28;20548;-40
2023/01/01 02:42:48;;;;;;;13.35;3.30;;;;;;;13.37;100.00;100652.91;5030087;28;20396;-39
2023/01/01 02:45:14;;;;;;;18.55;3.67;;;;;;;13.32;100.00;100628.38;5044099;28;20499;-40
2023/01/01 02:47:39;;;;;;;20.55;4.10;;;;;;;13.27;100.00;100640.81;5050029;28;20029;-40
2023/01/01 02:50:13;;;;;;;15.82;3.72;;;;;;;13.25;100.00;100635.59;5052343;28;20029;-40
2023/01/01 02:53:14;;;;;;;17.33;3.60;;;;;;;13.26;100.00;100629.19;5040899;28;20038;-38
2023/01/01 02:56:04;;;;;;;17.10;3.13;;;;;;;13.32;100.00;100628.38;5043854;28;20188;-40
2023/01/01 03:01:48;;;;;;;20.33;3.28;;;;;;;13.32;100.00;100650.00;5031156;28;20492;-40
2023/01/01 03:04:23;;;;;;;18.58;3.42;;;;;;;13.19;100.00;100652.63;5033221;28;20444;-40
2023/01/01 03:06:55;;;;;;;22.40;3.88;;;;;;;13.05;100.00;100683.34;5034898;28;20034;-40
2023/01/01 03:09:55;;;;;;;11.50;2.97;;;;;;;13.02;100.00;100678.34;5043251;28;20056;-37
2023/01/01 03:12:38;;;;;;;23.33;3.38;;;;;;;13.00;100.00;100692.06;5019027;28;20041;-39
2023/01/01 03:15:08;;;;;;;17.17;3.60;;;;;;;12.98;100.00;100679.78;5030803;28;20497;-39
2023/01/01 03:17:50;;;;;;;18.98;3.30;;;;;;;12.92;100.00;100678.72;5034699;28;20025;-40
2023/01/01 03:20:20;;;;;;;18.30;3.63;;;;;;;12.88;100.00;100707.19;5034757;28;20033;-37
2023/01/01 03:22:46;;;;;;;17.17;3.53;;;;;;;12.86;100.00;100698.44;5034609;28;20037;-38
2023/01/01 03:25:13;;;;;;;18.52;3.70;;;;;;;12.82;100.00;100698.03;5041922;28;20382;-39
2023/01/01 03:27:45;;;;;;;16.52;3.33;;;;;;;12.82;100.00;100699.88;5037385;28;20124;-40
2023/01/01 03:30:12;;;;;;;20.70;3.13;;;;;;;12.78;100.00;100699.44;5038196;28;20162;-37
2023/01/01 03:33:02;;;;;;;21.80;3.93;;;;;;;12.75;100.00;100702.53;5046503;28;20037;-39
2023/01/01 03:35:31;;;;;;;26.83;3.47;;;;;;;12.71;100.00;100715.59;5041261;28;20462;-39
2023/01/01 03:37:57;;;;;;;30.17;4.15;;;;;;;12.64;100.00;100722.00;5033168;28;20021;-40
2023/01/01 03:40:24;;;;;;;20.17;3.85;;;;;;;12.58;100.00;100730.88;5038016;28;20052;-38
2023/01/01 03:42:55;;;;;;;17.70;2.95;;;;;;;12.51;100.00;100720.88;5042262;28;20032;-40
2023/01/01 03:45:28;;;;;;;14.02;2.60;;;;;;;12.42;100.00;100724.75;5040085;28;20026;-38
2023/01/01 03:47:54;;;;;;;15.18;2.45;;;;;;;12.32;100.00;100740.44;5032271;28;20034;-39
2023/01/01 03:50:22;;;;;;;15.13;3.13;;;;;;;12.20;100.00;100756.34;5034080;28;20074;-37
2023/01/01 03:53:02;;;;;;;15.13;2.40;;;;;;;12.14;100.00;100758.97;5036971;28;20033;-37
2023/01/01 03:55:35;;;;;;;19.52;2.50;;;;;;;12.06;100.00;100754.59;5032781;28;20112;-37
2023/01/01 03:58:04;;;;;;;15.93;3.05;;;;;;;12.02;100.00;100756.81;5042944;28;20503;-39
2023/01/01 04:00:34;;;;;;;20.00;2.45;;;;;;;11.98;100.00;100757.38;5040873;28;20059;-39
2023/01/01 04:03:17;;;;;;;12.27;2.85;;;;;;;11.89;100.00;100758.56;5033858;28;20055;-36
2023/01/01 04:05:43;;;;;;;19.23;3.25;;;;;;;11.83;100.00;100773.63;5043089;28;20454;-36
2023/01/01 04:08:09;;;;;;;16.92;2.53;;;;;;;11.85;100.00;100763.47;5039650;28;20040;-39
2023/01/01 04:10:38;;;;;;;28.00;2.92;;;;;;;11.84;100.00;100791.47;5046913;28;20036;-39
2023/01/01 04:13:04;;;;;;;8.30;2.53;;;;;;;11.84;100.00;100772.56;5034354;28;20028;-37
2023/01/01 04:15:31;;;;;;;11.48;2.13;;;;;;;11.83;100.00;100771.75;5044173;28;20036;-39
2023/01/01 04:17:56;;;;;;;17.63;2.35;;;;;;;11.85;100.00;100779.66;5035550;28;20385;-37
2023/01/01 04:20:22;;;;;;;19.27;2.40;;;;;;;11.81;100.00;100789.16;5049823;28;20356;-40
2023/01/01 04:22:47;;;;;;;25.25;2.90;;;;;;;11.81;100.00;100781.06;5034242;28;20036;-38
2023/01/01 04:25:13;;;;;;;13.70;2.50;;;;;;;11.76;100.00;100795.09;5046752;28;20443;-40
2023/01/01 04:27:39;;;;;;;27.98;3.05;;;;;;;11.74;100.00;100804.41;5046617;28;20507;-40
2023/01/01 04:30:07;;;;;;;29.92;3.08;;;;;;;11.69;100.00;100806.84;5049682;28;20496;-37
2023/01/01 04:32:33;;;;;;;;;;;;;;;11.68;100.00;100810.56;5047864;28;20049;-40
2023/01/01 04:34:59;;;;;;;30.38;4.43;;;;;;;11.65;100.00;100831.50;5050022;28;20261;-37
2023/01/01 04:37:24;;;;;;;38.13;5.15;;;;;;;11.65;100.00;100834.19;5035984;28;20033;-40
2023/01/01 04:39:49;;;;;;;30.98;3.22;;;;;;;11.65;100.00;100828.78;5044821;28;20068;-38
2023/01/01 04:42:15;;;;;;;38.75;4.70;;;;;;;11.63;100.00;100836.22;5042077;28;20061;-40
2023/01/01 04:44:40;;;;;;;35.70;4.03;;;;;;;11.63;100.00;100851.56;5034933;28;20038;-39
2023/01/01 04:47:06;;;;;;;38.80;3.75;;;;;;;11.63;100.00;100879.34;5041272;28;20044;-40
2023/01/01 04:49:31;;;;;;;29.98;4.20;;;;;;;11.62;100.00;100844.53;5041885;28;20031;-40
2023/01/01 04:51:56;;;;;;;31.27;3.58;;;;;;;11.63;100.00;100827.31;5041402;28;20029;-40
2023/01/01 04:54:22;;;;;;;29.17;4.28;;;;;;;11.59;100.00;100826.88;5043774;28;20759;-38
2023/01/01 04:56:48;;;;;;;29.50;3.38;;;;;;;11.62;100.00;100822.94;5038726;28;20056;-40
2023/01/01 04:59:13;;;;;;;29.98;3.22;;;;;;;11.61;100.00;100832.91;5048317;28;20029;-38
2023/01/01 05:01:38;;;;;;;29.38;3.13;;;;;;;11.64;100.00;100847.88;5041959;28;20021;-38
2023/01/01 05:04:04;;;;;;;30.27;4.60;;;;;;;11.61;100.00;100849.09;5041968;28;20090;-40
2023/01/01 05:06:29;;;;;;;24.10;3.00;;;;;;;11.63;100.00;100849.72;5041762;28;20028;-40
2023/01/01 05:08:55;;;;;;;21.98;2.80;;;;;;;11.63;100.00;100847.00;5037800;28;20499;-39
2023/01/01 05:11:26;;;;;;;22.40;3.10;;;;;;;11.62;100.00;100853.44;5041007;28;20485;-39
2023/01/01 05:13:53;;;;;;;25.13;3.13;;;;;;;11.61;100.00;100861.69;5036066;28;20500;-38
2023/01/01 05:16:23;;;;;;;25.33;3.58;;;;;;;11.60;100.00;100863.56;5043055;28;20027;-36
2023/01/01 05:18:48;;;;;;;28.88;2.65;;;;;;;11.62;100.00;100860.69;5050770;28;20048;-36
2023/01/01 05:21:19;;;;;;;22.92;2.75;;;;;;;11.60;100.00;100855.47;5037242;28;20025;-39
2023/01/01 05:23:45;;;;;;;28.63;3.03;;;;;;;11.57;100.00;100869.34;5044896;28;20470;-39
2023/01/01 05:26:16;;;;;;;33.03;3.00;;;;;;;11.55;100.00;100871.38;5034392;28;20040;-39
2023/01/01 05:28:41;;;;;;;27.38;4.05;;;;;;;11.54;100.00;100872.41;5048329;28;20365;-37
2023/01/01 05:31:09;;;;;;;29.88;3.42;;;;;;;11.54;100.00;100882.38;5049726;28;20076;-39
2023/01/01 05:33:35;;;;;;;37.70;4.00;;;;;;;11.52;100.00;100869.06;5049637;28;20017;-38
2023/01/01 05:36:02;;;;;;;31.88;3.85;;;;;;;11.55;100.00;100875.94;5042621;28;20017;-39
2023/01/01 05:38:28;;;;;;;28.35;3.85;;;;;;;11.54;100.00;100885.06;5038135;28;20199;-37
2023/01/01 05:40:53;;;;;;;34.65;3.67;;;;;;;11.54;100.00;100928.19;5041728;28;20116;-36
2023/01/01 05:43:19;;;;;;;30.38;3.88;;;;;;;11.49;100.00;100893.69;5052172;28;20502;-40
2023/01/01 05:45:44;;;;;;;27.75;3.70;;;;;;;11.47;100.00;100895.75;5040449;28;20094;-40
2023/01/01 05:48:10;;;;;;;27.55;3.90;;;;;;;11.45;100.00;100929.28;5047400;28;20021;-39
2023/01/01 05:50:35;;;;;;;31.92;4.28;;;;;;;11.43;100.00;100927.63;5039741;28;20120;-36
2023/01/01 05:53:00;;;;;;;24.88;3.10;;;;;;;11.43;100.00;100930.31;5046355;28;20375;-39
2023/01/01 05:55:26;;;;;;;35.60;4.45;;;;;;;11.42;100.00;100931.31;5044298;28;20332;-36
2023/01/01 05:57:51;;;;;;;25.63;3.42;;;;;;;11.44;100.00;100920.38;5039477;28;20026;-39
2023/01/01 06:00:17;;;;;;;31.40;3.20;;;;;;;11.41;100.00;100928.81;5032860;28;20037;-38
2023/01/01 06:02:42;;;;;;;32.10;2.95;;;;;;;11.40;100.00;100937.91;5034726;28;20033;-39
2023/01/01 06:05:08;;;;;;;39.30;4.32;;;;;;;11.38;100.00;100962.38;5046619;28;20242;-39
2023/01/01 06:07:33;;;;;;;38.13;3.22;;;;;;;11.35;100.00;100945.75;5041175;28;20025;-39
2023/01/01 06:09:58;;;;;;;35.28;3.63;;;;;;;11.33;100.00;100950.47;5031746;28;20388;-39
2023/01/01 06:12:24;;;;;;;27.55;3.15;;;;;;;11.30;100.00;100945.47;5031632;28;20390;-38
2023/01/01 06:14:49;;;;;;;37.30;4.45;;;;;;;11.26;100.00;100963.00;5045296;28;20111;-39
2023/01/01 06:17:14;;;;;;;33.47;3.42;;;;;;;11.25;100.00;100953.25;5039903;28;20047;-40
2023/01/01 06:19:40;;;;;;;31.02;3.35;;;;;;;11.24;100.00;100954.25;5038660;28;20029;-39
2023/01/01 06:22:05;;;;;;;38.05;3.72;;;;;;;11.21;100.00;100950.91;5032744;28;20028;-36
2023/01/01 06:24:31;;;;;;;39.33;3.95;;;;;;;11.20;100.00;100965.41;5032148;28;20033;-37
2023/01/01 06:26:56;;;;;;;40.58;3.85;;;;;;;11.20;100.00;100957.31;5039280;28;20377;-38
2023/01/01 06:29:21;;;;;;;32.85;3.55;;;;;;;11.23;100.00;100960.69;5031527;28;21469;-36
2023/01/01 06:31:47;;;;;;;27.27;3.90;;;;;;;11.20;100.00;100983.44;5042756;28;20137;-38
2023/01/01 06:34:12;;;;;;;32.55;4.18;;;;;;;11.22;100.00;100978.72;5032844;28;20091;-39
2023/01/01 06:36:37;;;;;;;33.67;3.22;;;;;;;11.22;100.00;100965.25;5041521;28;20017;-38
2023/01/01 06:39:03;;;;;;;28.88;3.45;;;;;;;11.19;100.00;100979.06;5042776;28;20018;-39
2023/01/01 06:41:29;;;;;;;31.35;2.75;;;;;;;11.16;100.00;100972.19;5046112;28;20377;-38
2023/01/01 06:43:56;;;;;;;32.90;2.80;;;;;;;11.15;100.00;101010.91;5047453;28;20029;-39
2023/01/01 06:46:32;;;;;;;37.85;3.85;;;;;;;11.16;100.00;101009.91;5041746;28;20048;-37
2023/01/01 06:49:03;;;;;;;28.77;4.15;;;;;;;11.14;100.00;100998.47;5051492;28;20227;-38
2023/01/01 06:51:31;;;;;;;29.23;3.05;;;;;;;11.14;100.00;101009.25;5046348;28;20045;-39
2023/01/01 06:54:00;;;;;;;26.27;3.35;;;;;;;11.16;100.00;101000.97;5042938;28;20064;-38
2023/01/01 06:56:26;;;;;;;26.50;3.58;;;;;;;11.15;100.00;101020.84;5036046;28;20029;-37
2023/01/01 06:58:52;;;;;;;28.48;2.72;;;;;;;11.12;100.00;101013.97;5032780;28;20047;-37
2023/01/01 07:01:23;;;;;;;27.02;3.42;;;;;;;11.09;100.00;101032.38;5037514;28;20104;-36
2023/01/01 07:03:51;;;;;;;26.25;3.20;;;;;;;11.10;100.00;101039.41;5038851;28;20116;-37
2023/01/01 07:06:16;;;;;;;25.77;3.00;;;;;;;11.09;100.00;101049.34;5042703;28;20029;-39
2023/01/01 07:08:41;;;;;;;30.67;3.90;;;;;;;11.08;100.00;101031.50;5034471;28;20033;-39
2023/01/01 07:11:06;;;;;;;32.95;3.33;;;;;;;11.08;100.00;101055.75;5040438;28;20080;-37
2023/01/01 07:13:32;;;;;;;25.08;2.95;;;;;;;11.07;100.00;101045.16;5038337;28;20123;-40
2023/01/01 07:15:57;;;;;;;35.10;4.18;;;;;;;11.05;100.00;101047.19;5031689;28;20121;-40
2023/01/01 07:18:23;;;;;;;26.95;3.22;;;;;;;11.02;100.00;101036.78;5034874;28;20372;-40
2023/01/01 07:20:54;;;;;;;19.27;2.45;;;;;;;10.98;100.00;101042.53;5032742;28;20041;-38
2023/01/01 07:23:19;;;;;;;29.48;2.88;;;;;;;11.03;100.00;101044.66;5039276;28;20479;-39
2023/01/01 07:25:45;;;;;;;27.70;2.97;;;;;;;11.01;100.00;101052.13;5039716;28;20108;-40
2023/01/01 07:28:11;;;;;;;17.65;2.38;;;;;;;11.03;100.00;101082.38;5038167;28;20056;-38
2023/01/01 07:30:36;;;;;;;26.27;2.97;;;;;;;11.03;100.00;101077.00;5037827;28;20045;-40
2023/01/01 07:33:02;;;;;;;28.02;3.38;;;;;;;11.04;100.00;101088.63;5038837;28;20049;-38
2023/01/01 07:35:27;;;;;;;23.90;2.70;;;;;;;11.06;100.00;101087.44;5043286;28;20124;-39
2023/01/01 07:37:52;;;;;;;22.55;2.85;;;;;;;11.06;100.00;101108.97;5037573;28;20177;-39
2023/01/01 07:40:18;;;;;;;26.08;2.45;;;;;;;11.05;100.00;101090.28;5033395;28;20148;-38
2023/01/01 07:42:43;;;;;;;31.88;2.67;;;;;;;11.05;100.00;101107.28;5032546;28;20033;-38
2023/01/01 07:45:11;;;;;;;18.85;2.50;;;;;;;11.02;100.00;101110.34;5046185;28;20118;-39
2023/01/01 07:47:36;;;;;;;19.40;2.60;;;;;;;11.02;100.00;101113.03;5032523;28;20022;-38
2023/01/01 07:50:02;;;;;;;23.85;2.53;;;;;;;10.99;100.00;101116.09;5031581;28;20032;-40
2023/01/01 07:52:27;;;;;;;22.95;2.58;;;;;;;10.99;100.00;101135.78;5039345;28;20083;-39
2023/01/01 07:54:52;;;;;;;31.75;3.25;;;;;;;11.01;100.00;101127.53;5033983;28;20400;-37
2023/01/01 07:57:18;;;;;;;22.08;2.70;;;;;;;11.04;100.00;101142.50;5042718;28;20495;-39
2023/01/01 07:59:43;;;;;;;26.58;3.17;;;;;;;11.04;100.00;101139.81;5037019;28;20052;-39
2023/01/01 08:02:11;;;;;;;30.17;2.78;;;;;;;11.03;100.00;101143.50;5037936;28;20033;-38
2023/01/01 08:04:36;;;;;;;;;;;;;;;11.03;100.00;101149.72;5034344;28;20029;-37
2023/01/01 08:07:02;;;;;;;27.63;2.92;;;;;;;11.07;100.00;101158.28;5030149;28;20438;-39
2023/01/01 08:09:27;;;;;;;25.90;3.22;;;;;;;11.05;100.00;101153.06;5039927;28;20326;-39
2023/01/01 08:11:52;;;;;;;17.42;2.25;;;;;;;11.02;100.00;101150.75;5041627;28;20500;-40
2023/01/01 08:14:18;;;;;;;22.58;2.58;;;;;;;11.01;100.00;101142.84;5043111;28;20500;-38
2023/01/01 08:16:43;;;;;;;22.88;2.65;;;;;;;11.03;100.00;101136.25;5029840;28;20389;-39
2023/01/01 08:19:09;;;;;;;29.00;3.55;;;;;;;11.01;100.00;101132.91;5033054;28;20025;-39
2023/01/01 08:21:34;;;;;;;25.90;2.53;;;;;;;11.02;100.00;101128.34;5036148;28;20515;-40
2023/01/01 08:23:59;;;;;;;23.80;2.78;;;;;;;11.01;100.00;101146.38;5027362;28;20500;-39
2023/01/01 08:26:30;;;;;;;29.58;3.03;;;;;;;11.00;100.00;101195.84;5042879;28;20131;-39
2023/01/01 08:28:56;;;;;;;22.67;2.63;;;;;;;11.05;100.00;101142.28;5031791;28;20502;-40
2023/01/01 08:31:22;;;;;;;27.30;3.42;;;;;;;11.08;100.00;101151.88;5044090;28;20132;-39
2023/01/01 08:33:47;;;;;;;31.52;2.92;;;;;;;11.10;100.00;101156.06;5029420;28;20024;-38
2023/01/01 08:36:15;;;;;;;29.77;3.55;;;;;;;11.07;100.00;101153.75;5039133;28;20064;-38
2023/01/01 08:38:40;;;;;;;38.78;3.10;;;;;;;11.07;100.00;101177.97;5033770;28;20029;-39
2023/01/01 08:41:06;;;;;;;22.33;2.67;;;;;;;11.10;100.00;101182.19;5033907;28;20090;-40
2023/01/01 08:43:31;;;;;;;25.25;2.70;;;;;;;11.07;100.00;101191.44;5033478;28;20396;-40
2023/01/01 08:45:56;;;;;;;28.80;2.85;;;;;;;11.08;100.00;101187.72;5034284;28;20029;-39
2023/01/01 08:48:22;;;;;;;33.75;3.13;;;;;;;11.10;100.00;101204.56;5027819;28;20064;-39
2023/01/01 08:50:55;;;;;;;20.30;2.75;;;;;;;11.09;100.00;101202.88;5037632;28;20075;-39
2023/01/01 08:53:21;;;;;;;23.02;2.85;;;;;;;11.11;100.00;101187.41;5027916;28;20034;-38
2023/01/01 08:55:57;;;;;;;17.77;2.53;;;;;;;11.12;100.00;101194.44;5045454;28;20029;-40
2023/01/01 08:58:22;;;;;;;22.08;2.65;;;;;;;11.16;100.00;101190.41;5032148;28;20029;-40
2023/01/01 09:00:47;;;;;;;18.20;2.30;;;;;;;11.20;100.00;101190.88;5029684;28;20033;-40
2023/01/01 09:03:12;;;;;;;20.17;2.13;;;;;;;11.25;100.00;101199.28;5026398;28;20033;-37
2023/01/01 09:05:38;;;;;;;27.45;2.55;;;;;;;11.27;100.00;101191.00;5035169;28;20021;-39
2023/01/01 09:08:03;;;;;;;24.80;3.13;;;;;;;11.30;100.00;101193.34;5027918;28;20060;-40
2023/01/01 09:10:29;;;;;;;19.38;2.08;;;;;;;11.32;100.00;101194.00;5033628;28;20029;-38
2023/01/01 09:12:54;;;;;;;17.92;2.28;;;;;;;11.32;100.00;101189.47;5042096;28;20032;-39
2023/01/01 09:15:19;;;;;;;23.75;2.92;;;;;;;11.33;100.00;101201.06;5037788;28;20484;-39
2023/01/01 09:17:45;;;;;;;20.77;3.63;;;;;;;11.32;100.00;101205.63;5042902;28;20168;-38
2023/01/01 09:20:10;;;;;;;23.15;2.53;;;;;;;11.35;100.00;101201.75;5030088;28;20059;-40
2023/01/01 09:22:35;;;;;;;18.10;2.75;;;;;;;11.40;100.00;101210.09;5037198;28;20028;-40
2023/01/01 09:25:01;;;;;;;13.98;1.70;;;;;;;11.56;100.00;101206.50;5030946;28;20064;-39
2023/01/01 09:27:26;;;;;;;28.58;2.80;;;;;;;11.46;100.00;101203.19;5040471;28;20033;-40
2023/01/01 09:29:51;;;;;;;19.88;3.17;;;;;;;11.63;100.00;101207.41;5049367;28;20024;-40
2023/01/01 09:32:17;;;;;;;17.23;2.30;;;;;;;11.65;100.00;101211.63;5033625;28;20049;-37
2023/01/01 09:34:43;;;;;;;23.92;2.22;;;;;;;11.62;100.00;101224.63;5033822;28;20116;-39
2023/01/01 09:37:08;;;;;;;21.83;2.05;;;;;;;11.74;100.00;101222.34;5041634;28;20358;-38
2023/01/01 09:39:33;;;;;;;21.80;2.70;;;;;;;11.89;100.00;101230.53;5051362;28;20120;-40
2023/01/01 09:42:39;;;;;;;18.75;2.22;;;;;;;11.87;100.00;101225.28;5047385;28;20040;-39
2023/01/01 09:45:06;;;;;;;17.30;2.10;;;;;;;12.03;100.00;101213.53;5022561;28;20095;-38
2023/01/01 09:47:38;;;;;;;25.10;2.67;;;;;;;12.14;100.00;101221.22;5036898;28;20045;-40
2023/01/01 09:50:07;;;;;;;23.35;3.00;;;;;;;12.17;100.00;101246.97;5038221;28;20053;-40
2023/01/01 09:52:39;;;;;;;17.80;3.00;;;;;;;12.05;100.00;101250.09;5036709;28;20055;-37
2023/01/01 09:55:13;;;;;;;17.52;2.58;;;;;;;12.15;100.00;101243.63;5044953;28;20255;-39
2023/01/01 09:57:39;;;;;;;16.83;2.65;;;;;;;12.35;100.00;101246.63;5038530;28;20570;-39
2023/01/01 10:00:15;;;;;;;16.42;1.88;;;;;;;12.32;100.00;101255.94;5050806;28;20033;-39
2023/01/01 10:03:19;;;;;;;16.38;2.35;;;;;;;12.49;100.00;101260.16;5033486;28;20021;-39
2023/01/01 10:05:44;;;;;;;18.88;2.65;;;;;;;12.33;100.00;101252.22;5030602;28;20040;-39
2023/01/01 10:08:15;;;;;;;17.80;2.60;;;;;;;12.32;100.00;101245.13;5040490;28;20128;-38
2023/01/01 10:10:51;;;;;;;16.92;2.42;;;;;;;12.23;100.00;101255.16;5036740;28;20034;-38
2023/01/01 10:13:20;;;;;;;19.40;2.17;;;;;;;12.08;100.00;101243.50;5039408;28;20370;-39
2023/01/01 10:15:53;;;;;;;16.15;2.55;;;;;;;11.99;100.00;101236.50;5044362;28;20043;-38
2023/01/01 10:18:21;;;;;;;25.55;3.05;;;;;;;12.08;100.00;101233.56;5043638;28;20444;-37
2023/01/01 10:21:11;;;;;;;18.25;2.20;;;;;;;12.01;100.00;101231.78;5034459;28;20069;-38
2023/01/01 10:23:48;;;;;;;22.92;2.08;;;;;;;12.12;100.00;101233.19;5030552;28;20073;-39
2023/01/01 10:26:19;;;;;;;14.20;2.47;;;;;;;12.02;100.00;101234.28;5031150;28;20034;-40
2023/01/01 10:28:55;;;;;;;25.00;3.22;;;;;;;11.94;100.00;101218.16;5039398;28;20033;-39
2023/01/01 10:31:35;;;;;;;24.30;3.92;;;;;;;12.16;100.00;101237.19;5027341;28;20123;-40
2023/01/01 10:34:24;;;;;;;30.27;3.20;;;;;;;12.59;100.00;101235.59;5040208;28;20028;-40
2023/01/01 10:36:55;;;;;;;21.83;3.08;;;;;;;12.79;100.00;101256.63;5030279;28;20036;-38
2023/01/01 10:39:21;;;;;;;24.10;3.22;;;;;;;12.91;100.00;101258.69;5040007;28;20112;-39
2023/01/01 10:41:46;;;;;;;25.35;3.42;;;;;;;12.83;100.00;101269.59;5037935;28;20116;-37
2023/01/01 10:44:14;;;;;;;18.73;2.75;;;;;;;12.88;100.00;101283.38;5041500;28;20465;-40
2023/01/01 10:46:43;;;;;;;23.58;2.75;;;;;;;12.79;100.00;101281.78;5032770;28;20190;-40
2023/01/01 10:49:11;;;;;;;25.48;3.03;;;;;;;12.71;100.00;101293.50;5044097;28;20033;-40
2023/01/01 10:51:41;;;;;;;19.00;2.75;;;;;;;12.51;100.00;101293.22;5042719;28;20129;-40
2023/01/01 10:54:22;;;;;;;26.50;3.70;;;;;;;12.48;100.00;101292.72;5042106;28;20036;-39
2023/01/01 10:56:47;;;;;;;19.75;2.63;;;;;;;12.27;100.00;101291.59;5048624;28;20025;-39
2023/01/01 10:59:37;;;;;;;23.92;2.88;;;;;;;12.21;100.00;101294.16;5043052;28;20647;-40
2023/01/01 11:02:17;;;;;;;21.23;1.92;;;;;;;12.19;100.00;101302.44;5035369;28;20088;-39
2023/01/01 11:04:42;;;;;;;19.75;2.50;;;;;;;12.14;100.00;101307.56;5042341;28;20373;-36
2023/01/01 11:07:08;;;;;;;20.58;2.53;;;;;;;12.17;100.00;101292.84;5049081;28;20123;-39
2023/01/01 11:09:38;;;;;;;20.70;2.38;;;;;;;12.26;100.00;101303.38;5030748;28;20083;-39
2023/01/01 11:12:05;;;;;;;22.25;2.35;;;;;;;12.27;100.00;101296.16;5043914;28;20029;-39
2023/01/01 11:14:40;;;;;;;25.83;3.13;;;;;;;12.11;100.00;101313.28;5040088;28;20493;-37
2023/01/01 11:17:07;;;;;;;22.98;2.88;;;;;;;12.07;100.00;101311.97;5055414;28;20499;-39
2023/01/01 11:19:33;;;;;;;20.70;2.60;;;;;;;12.06;100.00;101327.34;5035902;28;20549;-39
2023/01/01 11:21:59;;;;;;;12.18;2.85;;;;;;;12.06;100.00;101311.16;5035409;28;20079;-39
2023/01/01 11:24:27;;;;;;;23.27;3.03;;;;;;;11.98;100.00;101303.13;5030584;28;20025;-40